createdAt,value
2023-05-14T00:00:36.924Z,7.72
2023-05-14T00:03:04.357Z,7.60
2023-05-14T00:05:31.306Z,7.80
2023-05-14T00:07:58.143Z,7.85
2023-05-14T00:10:25.369Z,8.85
2023-05-14T00:12:52.300Z,8.65
2023-05-14T00:15:19.401Z,8.10
2023-05-14T00:17:46.594Z,8.13
2023-05-14T00:20:13.557Z,9.10
2023-05-14T00:22:40.706Z,8.25
2023-05-14T00:25:09.029Z,8.30
2023-05-14T00:27:37.986Z,8.07
2023-05-14T00:30:07.067Z,8.65
2023-05-14T00:32:34.341Z,8.43
2023-05-14T00:35:03.267Z,8.57
2023-05-14T00:37:30.190Z,9.70
2023-05-14T00:39:57.238Z,8.40
2023-05-14T00:42:24.037Z,8.38
2023-05-14T00:44:50.820Z,9.18
2023-05-14T00:47:17.593Z,7.75
2023-05-14T00:49:44.491Z,8.55
2023-05-14T00:52:12.055Z,9.13
2023-05-14T00:54:39.447Z,9.13
2023-05-14T00:57:07.005Z,9.10
2023-05-14T00:59:33.916Z,8.45
2023-05-14T01:02:00.815Z,8.88
2023-05-14T01:04:27.808Z,8.32
2023-05-14T01:07:30.720Z,9.70
2023-05-14T01:10:16.149Z,8.00
2023-05-14T01:12:45.761Z,9.30
2023-05-14T01:15:26.722Z,9.10
2023-05-14T01:18:14.627Z,8.55
2023-05-14T01:20:41.372Z,8.60
2023-05-14T01:23:08.150Z,9.18
2023-05-14T01:25:35.696Z,9.05
2023-05-14T01:28:11.600Z,9.05
2023-05-14T01:31:02.418Z,9.45
2023-05-14T01:33:32.658Z,9.50
2023-05-14T01:36:00.081Z,8.98
2023-05-14T01:38:31.039Z,9.90
2023-05-14T01:40:58.376Z,9.82
2023-05-14T01:43:25.559Z,8.55
2023-05-14T01:45:52.373Z,9.63
2023-05-14T01:48:19.164Z,8.48
2023-05-14T01:50:46.030Z,8.82
2023-05-14T01:53:12.908Z,9.50
2023-05-14T01:55:39.704Z,9.05
2023-05-14T01:58:06.443Z,10.15
2023-05-14T02:00:33.666Z,8.90
2023-05-14T02:03:00.384Z,9.50
2023-05-14T02:05:27.161Z,10.40
2023-05-14T02:07:54.054Z,9.98
2023-05-14T02:10:21.128Z,9.38
2023-05-14T02:12:48.048Z,10.38
2023-05-14T02:15:14.768Z,10.60
2023-05-14T02:17:41.658Z,10.38
2023-05-14T02:20:10.535Z,9.77
2023-05-14T02:22:37.653Z,10.93
2023-05-14T02:25:04.701Z,9.95
2023-05-14T02:27:31.910Z,9.88
2023-05-14T02:30:01.021Z,9.82
2023-05-14T02:32:28.480Z,10.45
2023-05-14T02:34:55.483Z,9.27
2023-05-14T02:37:22.366Z,10.15
2023-05-14T02:39:49.738Z,9.98
2023-05-14T02:42:16.480Z,10.23
2023-05-14T02:44:43.253Z,9.63
2023-05-14T02:47:10.079Z,10.00
2023-05-14T02:49:36.926Z,9.57
2023-05-14T02:52:03.835Z,10.82
2023-05-14T02:54:30.582Z,9.80
2023-05-14T02:56:57.357Z,9.70
2023-05-14T02:59:25.087Z,9.85
2023-05-14T03:01:52.581Z,9.27
2023-05-14T03:04:19.917Z,8.93
2023-05-14T03:06:46.719Z,9.65
2023-05-14T03:09:13.577Z,11.40
2023-05-14T03:11:40.509Z,9.48
2023-05-14T03:14:07.240Z,10.88
2023-05-14T03:16:34.017Z,9.90
2023-05-14T03:19:00.855Z,9.98
2023-05-14T03:21:27.805Z,10.00
2023-05-14T03:23:54.583Z,10.00
2023-05-14T03:26:21.848Z,9.88
2023-05-14T03:28:49.051Z,10.48
2023-05-14T03:31:16.028Z,10.15
2023-05-14T03:33:42.915Z,10.02
2023-05-14T03:36:09.833Z,10.45
2023-05-14T03:38:37.113Z,10.07
2023-05-14T03:41:03.955Z,8.80
2023-05-14T03:43:30.720Z,9.85
2023-05-14T03:45:57.492Z,9.68
2023-05-14T03:48:24.259Z,9.23
2023-05-14T03:50:51.679Z,9.45
2023-05-14T03:53:18.419Z,9.70
2023-05-14T03:55:45.151Z,9.32
2023-05-14T03:58:14.504Z,9.63
2023-05-14T04:00:44.612Z,9.00
2023-05-14T04:03:12.142Z,8.80
2023-05-14T04:05:39.029Z,9.07
2023-05-14T04:08:06.111Z,8.70
2023-05-14T04:10:32.919Z,9.00
2023-05-14T04:12:59.681Z,9.27
2023-05-14T04:15:26.746Z,7.72
2023-05-14T04:17:53.583Z,8.13
2023-05-14T04:20:20.410Z,7.90
2023-05-14T04:22:47.184Z,8.38
2023-05-14T04:25:14.006Z,8.43
2023-05-14T04:27:40.851Z,7.82
2023-05-14T04:30:08.720Z,8.25
2023-05-14T04:32:35.713Z,8.48
2023-05-14T04:35:02.918Z,7.88
2023-05-14T04:37:29.681Z,7.65
2023-05-14T04:39:56.476Z,8.05
2023-05-14T04:42:23.278Z,7.88
2023-05-14T04:44:49.992Z,7.78
2023-05-14T04:47:16.981Z,7.50
2023-05-14T04:49:43.782Z,7.75
2023-05-14T04:52:10.804Z,8.20
2023-05-14T04:54:37.592Z,7.88
2023-05-14T04:57:04.601Z,7.57
2023-05-14T04:59:31.569Z,7.78
2023-05-14T05:01:58.448Z,7.70
2023-05-14T05:04:26.595Z,7.80
2023-05-14T05:06:53.419Z,8.27
2023-05-14T05:09:20.161Z,7.32
2023-05-14T05:11:46.918Z,8.77
2023-05-14T05:14:13.758Z,7.38
2023-05-14T05:16:40.644Z,7.50
2023-05-14T05:19:07.450Z,7.75
2023-05-14T05:21:34.577Z,8.00
2023-05-14T05:24:01.324Z,8.55
2023-05-14T05:26:28.316Z,7.95
2023-05-14T05:28:55.069Z,8.38
2023-05-14T05:31:21.867Z,8.80
2023-05-14T05:33:48.740Z,8.05
2023-05-14T05:36:15.505Z,8.45
2023-05-14T05:38:42.474Z,7.97
2023-05-14T05:41:09.245Z,7.95
2023-05-14T05:43:36.013Z,8.35
2023-05-14T05:46:02.978Z,7.47
2023-05-14T05:48:29.813Z,7.05
2023-05-14T05:50:56.657Z,6.88
2023-05-14T05:53:23.430Z,7.22
2023-05-14T05:55:51.945Z,6.95
2023-05-14T05:58:19.677Z,6.25
2023-05-14T06:00:47.210Z,5.85
2023-05-14T06:03:14.309Z,6.57
2023-05-14T06:05:41.417Z,6.78
2023-05-14T06:08:08.284Z,6.90
2023-05-14T06:10:36.475Z,6.47
2023-05-14T06:13:03.423Z,7.00
2023-05-14T06:15:30.242Z,6.57
2023-05-14T06:17:57.149Z,6.10
2023-05-14T06:20:24.213Z,6.65
2023-05-14T06:22:51.246Z,6.28
2023-05-14T06:25:18.249Z,6.13
2023-05-14T06:27:45.075Z,5.93
2023-05-14T06:30:12.661Z,5.90
2023-05-14T06:32:39.522Z,6.25
2023-05-14T06:35:06.934Z,6.90
2023-05-14T06:37:33.740Z,6.38
2023-05-14T06:40:01.876Z,6.28
2023-05-14T06:42:28.650Z,5.80
2023-05-14T06:44:56.205Z,6.35
2023-05-14T06:47:23.149Z,6.18
2023-05-14T06:49:50.199Z,5.40
2023-05-14T06:52:17.220Z,6.18
2023-05-14T06:54:43.993Z,5.88
2023-05-14T06:57:10.810Z,6.20
2023-05-14T06:59:37.532Z,5.75
2023-05-14T07:02:04.388Z,6.20
2023-05-14T07:04:31.200Z,6.25
2023-05-14T07:06:58.024Z,6.15
2023-05-14T07:09:24.907Z,6.25
2023-05-14T07:11:51.672Z,6.22
2023-05-14T07:14:18.447Z,5.95
2023-05-14T07:16:47.174Z,5.80
2023-05-14T07:19:14.200Z,5.75
2023-05-14T07:21:41.115Z,6.03
2023-05-14T07:24:08.032Z,5.97
2023-05-14T07:26:35.021Z,6.30
2023-05-14T07:29:01.842Z,6.13
2023-05-14T07:31:28.578Z,5.63
2023-05-14T07:33:55.617Z,5.95
2023-05-14T07:36:23.422Z,6.07
2023-05-14T07:38:50.218Z,6.20
2023-05-14T07:41:17.023Z,6.80
2023-05-14T07:43:43.957Z,6.32
2023-05-14T07:46:10.881Z,6.22
2023-05-14T07:48:37.748Z,6.32
2023-05-14T07:51:04.569Z,5.97
2023-05-14T07:53:31.633Z,6.22
2023-05-14T07:56:00.227Z,6.78
2023-05-14T07:58:28.299Z,5.82
2023-05-14T08:00:55.255Z,6.18
2023-05-14T08:03:22.296Z,6.15
2023-05-14T08:05:49.186Z,6.13
2023-05-14T08:08:16.452Z,6.50
2023-05-14T08:10:43.250Z,6.45
2023-05-14T08:13:10.031Z,5.90
2023-05-14T08:15:37.363Z,5.57
2023-05-14T08:18:04.175Z,6.10
2023-05-14T08:20:31.368Z,6.25
2023-05-14T08:22:58.629Z,5.97
2023-05-14T08:25:25.549Z,6.07
2023-05-14T08:27:53.907Z,6.38
2023-05-14T08:30:22.334Z,6.10
2023-05-14T08:32:49.503Z,6.47
2023-05-14T08:35:17.631Z,5.88
2023-05-14T08:37:44.507Z,5.97
2023-05-14T08:40:12.197Z,5.72
2023-05-14T08:42:43.459Z,5.93
2023-05-14T08:45:21.358Z,5.97
2023-05-14T08:47:53.180Z,5.88
2023-05-14T08:50:22.786Z,5.72
2023-05-14T08:52:50.679Z,5.65
2023-05-14T08:55:17.416Z,5.60
2023-05-14T08:57:44.519Z,5.47
2023-05-14T09:00:12.178Z,5.78
2023-05-14T09:02:40.817Z,5.85
2023-05-14T09:05:09.520Z,6.28
2023-05-14T09:07:36.730Z,6.47
2023-05-14T09:10:04.229Z,5.68
2023-05-14T09:12:31.587Z,6.40
2023-05-14T09:14:59.135Z,6.82
2023-05-14T09:17:30.250Z,6.93
2023-05-14T09:19:57.122Z,6.97
2023-05-14T09:22:23.856Z,6.35
2023-05-14T09:25:05.448Z,6.35
2023-05-14T09:27:33.454Z,5.78
2023-05-14T09:30:11.493Z,6.03
2023-05-14T09:32:46.455Z,6.20
2023-05-14T09:35:20.989Z,6.13
2023-05-14T09:37:52.447Z,6.22
2023-05-14T09:40:21.236Z,5.63
2023-05-14T09:42:49.406Z,5.97
2023-05-14T09:45:16.912Z,5.90
2023-05-14T09:47:45.636Z,6.22
2023-05-14T09:50:12.812Z,6.07
2023-05-14T09:52:39.778Z,5.68
2023-05-14T09:55:07.285Z,5.43
2023-05-14T09:57:34.797Z,5.20
2023-05-14T10:00:01.622Z,5.70
2023-05-14T10:02:38.268Z,5.43
2023-05-14T10:05:07.221Z,5.72
2023-05-14T10:07:39.293Z,5.53
2023-05-14T10:10:09.804Z,5.55
2023-05-14T10:12:39.804Z,5.60
2023-05-14T10:15:23.980Z,5.75
2023-05-14T10:17:57.370Z,5.25
2023-05-14T10:20:25.508Z,5.55
2023-05-14T10:22:52.472Z,5.40
2023-05-14T10:25:19.478Z,4.93
2023-05-14T10:27:46.290Z,5.25
2023-05-14T10:30:13.502Z,5.07
2023-05-14T10:32:42.163Z,5.22
2023-05-14T10:35:23.055Z,5.30
2023-05-14T10:37:51.890Z,5.03
2023-05-14T10:40:19.595Z,5.20
2023-05-14T10:42:47.154Z,4.68
2023-05-14T10:45:15.830Z,5.22
2023-05-14T10:47:45.792Z,4.75
2023-05-14T10:50:15.296Z,5.10
2023-05-14T10:52:46.683Z,5.03
2023-05-14T10:55:15.533Z,4.70
2023-05-14T10:57:46.847Z,4.85
2023-05-14T11:00:15.065Z,5.07
2023-05-14T11:02:43.828Z,4.95
2023-05-14T11:05:17.506Z,5.45
2023-05-14T11:07:49.905Z,5.13
2023-05-14T11:10:18.691Z,5.22
2023-05-14T11:12:47.385Z,5.10
2023-05-14T11:15:22.045Z,4.70
2023-05-14T11:17:50.602Z,5.40
2023-05-14T11:20:18.195Z,5.22
2023-05-14T11:22:47.025Z,4.78
2023-05-14T11:25:15.157Z,4.95
2023-05-14T11:27:45.568Z,5.47
2023-05-14T11:30:22.098Z,5.70
2023-05-14T11:32:50.617Z,4.97
2023-05-14T11:35:18.284Z,5.07
2023-05-14T11:37:51.980Z,4.88
2023-05-14T11:40:19.022Z,4.97
2023-05-14T11:42:46.577Z,4.78
2023-05-14T11:45:14.658Z,4.68
2023-05-14T11:47:42.982Z,4.97
2023-05-14T11:50:10.246Z,4.68
2023-05-14T11:52:41.629Z,5.50
2023-05-14T11:55:14.390Z,4.38
2023-05-14T11:57:41.589Z,4.88
2023-05-14T12:00:09.592Z,4.47
2023-05-14T12:02:37.515Z,4.68
2023-05-14T12:05:07.458Z,4.80
2023-05-14T12:07:34.288Z,4.47
2023-05-14T12:10:03.944Z,4.10
2023-05-14T12:12:36.312Z,4.22
2023-05-14T12:15:11.556Z,4.45
2023-05-14T12:17:38.637Z,4.20
2023-05-14T12:20:10.672Z,4.32
2023-05-14T12:22:37.755Z,4.40
2023-05-14T12:25:05.264Z,4.30
2023-05-14T12:27:32.101Z,4.43
2023-05-14T12:32:41.242Z,4.35
2023-05-14T12:35:09.078Z,3.85
2023-05-14T12:37:37.625Z,3.55
2023-05-14T12:40:10.592Z,3.50
2023-05-14T12:42:37.944Z,4.00
2023-05-14T12:45:08.219Z,3.95
2023-05-14T12:47:35.403Z,4.20
2023-05-14T12:50:02.833Z,4.28
2023-05-14T12:54:59.435Z,3.90
2023-05-14T12:57:27.930Z,3.92
2023-05-14T12:59:55.447Z,3.80
2023-05-14T13:02:22.215Z,3.70
2023-05-14T13:04:49.032Z,3.85
2023-05-14T13:07:15.881Z,4.60
2023-05-14T13:09:43.026Z,4.28
2023-05-14T13:12:10.018Z,3.72
2023-05-14T13:14:36.878Z,3.90
2023-05-14T13:17:05.218Z,3.65
2023-05-14T13:19:32.053Z,4.00
2023-05-14T13:21:58.778Z,3.85
2023-05-14T13:24:25.554Z,4.05
2023-05-14T13:26:52.357Z,3.75
2023-05-14T13:29:19.093Z,3.70
2023-05-14T13:31:45.996Z,4.40
2023-05-14T13:34:13.343Z,3.80
2023-05-14T13:36:40.957Z,3.67
2023-05-14T13:39:07.777Z,4.15
2023-05-14T13:41:38.134Z,4.30
2023-05-14T13:44:05.365Z,3.95
2023-05-14T13:46:32.286Z,3.80
2023-05-14T13:48:59.076Z,3.60
2023-05-14T13:51:25.938Z,3.83
2023-05-14T13:56:19.726Z,3.65
2023-05-14T13:58:46.492Z,4.47
2023-05-14T14:01:13.273Z,4.05
2023-05-14T14:03:40.027Z,4.35
2023-05-14T14:06:06.949Z,6.47
2023-05-14T14:08:33.724Z,4.45
2023-05-14T14:11:00.560Z,3.75
2023-05-14T14:13:28.037Z,3.88
2023-05-14T14:15:54.890Z,3.40
2023-05-14T14:18:21.798Z,4.07
2023-05-14T14:20:48.651Z,3.55
2023-05-14T14:23:15.482Z,3.92
2023-05-14T14:25:42.271Z,3.60
2023-05-14T14:28:09.071Z,3.33
2023-05-14T14:30:35.918Z,4.03
2023-05-14T14:33:02.658Z,3.70
2023-05-14T14:35:29.488Z,3.67
2023-05-14T14:37:56.363Z,3.80
2023-05-14T14:40:24.161Z,3.70
2023-05-14T14:42:51.064Z,3.65
2023-05-14T14:45:18.270Z,3.70
2023-05-14T14:47:46.555Z,3.47
2023-05-14T14:50:13.940Z,3.63
2023-05-14T14:52:45.621Z,3.63
2023-05-14T14:55:12.824Z,3.92
2023-05-14T14:57:39.705Z,4.10
2023-05-14T15:00:07.981Z,3.80
2023-05-14T15:02:35.053Z,3.30
2023-05-14T15:05:02.273Z,4.03
2023-05-14T15:07:33.152Z,3.65
2023-05-14T15:09:59.944Z,3.70
2023-05-14T15:12:26.691Z,3.78
2023-05-14T15:14:53.449Z,4.38
2023-05-14T15:17:20.243Z,3.80
2023-05-14T15:19:47.814Z,3.67
2023-05-14T15:22:14.640Z,3.90
2023-05-14T15:24:41.349Z,4.03
2023-05-14T15:27:08.093Z,3.60
2023-05-14T15:29:34.902Z,3.70
2023-05-14T15:32:02.617Z,3.95
2023-05-14T15:34:29.589Z,4.03
2023-05-14T15:36:56.320Z,3.55
2023-05-14T15:39:23.232Z,3.67
2023-05-14T15:41:50.539Z,3.70
2023-05-14T15:44:17.379Z,3.50
2023-05-14T15:46:44.379Z,3.25
2023-05-14T15:49:11.559Z,3.92
2023-05-14T15:51:38.717Z,3.90
2023-05-14T15:54:05.797Z,3.83
2023-05-14T15:56:32.953Z,3.80
2023-05-14T15:59:00.078Z,3.72
2023-05-14T16:01:27.244Z,3.90
2023-05-14T16:03:54.679Z,4.30
2023-05-14T16:06:21.730Z,3.85
2023-05-14T16:08:49.792Z,4.05
2023-05-14T16:11:16.653Z,4.32
2023-05-14T16:13:43.854Z,3.92
2023-05-14T16:16:11.285Z,4.20
2023-05-14T16:18:39.297Z,4.13
2023-05-14T16:21:06.560Z,4.00
2023-05-14T16:23:33.635Z,4.07
2023-05-14T16:26:00.647Z,4.05
2023-05-14T16:28:27.458Z,3.95
2023-05-14T16:30:55.463Z,4.03
2023-05-14T16:33:22.415Z,4.30
2023-05-14T16:35:50.715Z,4.25
2023-05-14T16:38:19.472Z,4.20
2023-05-14T16:40:46.529Z,4.82
2023-05-14T16:43:13.409Z,5.60
2023-05-14T16:45:40.616Z,4.05
2023-05-14T16:48:07.738Z,4.20
2023-05-14T16:50:34.611Z,3.70
2023-05-14T16:53:01.527Z,4.25
2023-05-14T16:55:28.289Z,3.97
2023-05-14T16:57:55.184Z,4.00
2023-05-14T17:00:21.961Z,4.20
2023-05-14T17:02:50.147Z,4.38
2023-05-14T17:05:17.386Z,4.05
2023-05-14T17:07:44.240Z,3.95
2023-05-14T17:10:11.581Z,3.88
2023-05-14T17:12:38.427Z,4.05
2023-05-14T17:15:07.437Z,4.38
2023-05-14T17:17:35.335Z,4.15
2023-05-14T17:20:02.261Z,4.05
2023-05-14T17:22:29.152Z,5.28
2023-05-14T17:24:56.048Z,3.92
2023-05-14T17:27:22.861Z,4.40
2023-05-14T17:29:52.672Z,4.40
2023-05-14T17:32:19.511Z,3.80
2023-05-14T17:34:46.582Z,4.28
2023-05-14T17:37:13.381Z,3.95
2023-05-14T17:39:40.163Z,4.00
2023-05-14T17:42:07.248Z,3.90
2023-05-14T17:44:34.184Z,3.47
2023-05-14T17:47:01.181Z,4.10
2023-05-14T17:49:28.028Z,3.67
2023-05-14T17:51:54.755Z,4.07
2023-05-14T17:54:21.514Z,4.32
2023-05-14T17:56:51.483Z,3.83
2023-05-14T17:59:18.295Z,3.78
2023-05-14T18:01:45.206Z,4.13
2023-05-14T18:04:12.177Z,3.80
2023-05-14T18:06:39.205Z,3.92
2023-05-14T18:09:06.013Z,4.20
2023-05-14T18:11:34.394Z,4.00
2023-05-14T18:14:01.552Z,3.58
2023-05-14T18:16:29.999Z,4.40
2023-05-14T18:18:57.013Z,3.97
2023-05-14T18:21:24.190Z,3.58
2023-05-14T18:23:51.130Z,4.30
2023-05-14T18:26:18.003Z,3.65
2023-05-14T18:28:44.846Z,3.15
2023-05-14T18:31:11.725Z,3.63
2023-05-14T18:33:38.571Z,3.65
2023-05-14T18:36:06.094Z,3.08
2023-05-14T18:38:35.745Z,3.08
2023-05-14T18:41:02.738Z,2.95
2023-05-14T18:43:29.557Z,3.20
2023-05-14T18:45:56.452Z,3.80
2023-05-14T18:48:23.719Z,3.50
2023-05-14T18:50:50.459Z,3.30
2023-05-14T18:53:17.405Z,3.25
2023-05-14T18:55:44.966Z,3.40
2023-05-14T18:58:12.372Z,3.33
2023-05-14T19:00:39.247Z,3.03
2023-05-14T19:03:06.230Z,2.80
2023-05-14T19:05:33.114Z,3.15
2023-05-14T19:08:01.156Z,3.30
2023-05-14T19:10:28.053Z,3.60
2023-05-14T19:12:54.971Z,3.45
2023-05-14T19:15:21.925Z,4.15
2023-05-14T19:17:49.344Z,3.60
2023-05-14T19:20:16.302Z,3.92
2023-05-14T19:22:43.288Z,3.78
2023-05-14T19:25:11.411Z,4.43
2023-05-14T19:27:38.968Z,4.15
2023-05-14T19:30:06.551Z,3.90
2023-05-14T19:32:33.505Z,4.30
2023-05-14T19:35:00.274Z,3.92
2023-05-14T19:37:27.108Z,3.97
2023-05-14T19:39:53.913Z,4.07
2023-05-14T19:42:20.729Z,3.80
2023-05-14T19:44:47.540Z,3.88
2023-05-14T19:47:14.669Z,4.00
2023-05-14T19:49:41.622Z,3.95
2023-05-14T19:52:08.477Z,4.10
2023-05-14T19:54:35.211Z,4.05
2023-05-14T19:57:02.067Z,4.93
2023-05-14T19:59:30.027Z,5.18
2023-05-14T20:01:57.177Z,4.80
2023-05-14T20:04:26.263Z,4.97
2023-05-14T20:06:53.031Z,4.72
2023-05-14T20:09:20.358Z,4.95
2023-05-14T20:11:47.220Z,4.88
2023-05-14T20:14:14.444Z,4.55
2023-05-14T20:16:42.150Z,4.55
2023-05-14T20:19:09.329Z,4.30
2023-05-14T20:21:36.110Z,5.43
2023-05-14T20:24:03.107Z,4.72
2023-05-14T20:26:29.926Z,4.00
2023-05-14T20:28:56.695Z,4.18
2023-05-14T20:31:23.640Z,4.32
2023-05-14T20:33:50.886Z,3.97
2023-05-14T20:36:17.734Z,4.38
2023-05-14T20:38:44.856Z,4.05
2023-05-14T20:41:11.635Z,4.30
2023-05-14T20:43:38.409Z,5.00
2023-05-14T20:46:07.527Z,4.20
2023-05-14T20:48:34.408Z,4.70
2023-05-14T20:51:01.939Z,4.28
2023-05-14T20:53:29.069Z,4.13
2023-05-14T20:55:56.056Z,4.57
2023-05-14T20:58:22.963Z,4.72
2023-05-14T21:00:49.896Z,4.35
2023-05-14T21:03:16.906Z,4.78
2023-05-14T21:05:43.984Z,4.72
2023-05-14T21:08:11.691Z,4.60
2023-05-14T21:10:38.491Z,5.10
2023-05-14T21:13:05.256Z,5.07
2023-05-14T21:15:32.870Z,4.93
2023-05-14T21:17:59.889Z,5.20
2023-05-14T21:20:26.732Z,4.45
2023-05-14T21:22:53.503Z,5.30
2023-05-14T21:25:20.332Z,4.80
2023-05-14T21:27:47.207Z,5.20
2023-05-14T21:30:14.433Z,4.90
2023-05-14T21:32:41.326Z,5.15
2023-05-14T21:35:08.483Z,4.93
2023-05-14T21:37:35.251Z,4.43
2023-05-14T21:40:02.035Z,5.30
2023-05-14T21:42:28.880Z,4.80
2023-05-14T21:44:55.619Z,4.93
2023-05-14T21:47:22.522Z,5.47
2023-05-14T21:49:49.377Z,4.78
2023-05-14T21:52:16.559Z,5.10
2023-05-14T21:54:43.363Z,5.53
2023-05-14T21:57:10.130Z,4.95
2023-05-14T21:59:37.381Z,5.70
2023-05-14T22:02:07.411Z,5.20
2023-05-14T22:04:35.505Z,5.35
2023-05-14T22:07:02.403Z,5.38
2023-05-14T22:09:29.297Z,5.13
2023-05-14T22:11:57.302Z,4.95
2023-05-14T22:14:24.128Z,4.78
2023-05-14T22:16:51.079Z,5.20
2023-05-14T22:19:17.958Z,5.25
2023-05-14T22:21:44.825Z,4.97
2023-05-14T22:24:11.562Z,5.13
2023-05-14T22:26:38.261Z,5.30
2023-05-14T22:29:05.024Z,5.40
2023-05-14T22:31:31.812Z,4.93
2023-05-14T22:33:58.568Z,5.32
2023-05-14T22:36:25.483Z,4.88
2023-05-14T22:38:52.314Z,5.35
2023-05-14T22:41:19.136Z,5.18
2023-05-14T22:43:48.856Z,5.70
2023-05-14T22:46:16.217Z,5.60
2023-05-14T22:48:42.957Z,5.18
2023-05-14T22:51:09.708Z,5.50
2023-05-14T22:53:36.589Z,5.82
2023-05-14T22:56:03.423Z,5.05
2023-05-14T22:58:30.190Z,5.63
2023-05-14T23:00:57.282Z,5.47
2023-05-14T23:03:24.028Z,5.43
2023-05-14T23:05:52.310Z,5.57
2023-05-14T23:08:19.024Z,5.35
2023-05-14T23:10:45.816Z,6.10
2023-05-14T23:13:12.661Z,5.70
2023-05-14T23:15:39.603Z,6.28
2023-05-14T23:18:07.828Z,6.05
2023-05-14T23:20:34.762Z,6.32
2023-05-14T23:23:01.487Z,7.20
2023-05-14T23:25:28.292Z,5.65
2023-05-14T23:27:55.076Z,6.07
2023-05-14T23:30:22.168Z,6.55
2023-05-14T23:32:48.932Z,6.28
2023-05-14T23:35:16.030Z,5.57
2023-05-14T23:37:47.600Z,5.88
2023-05-14T23:40:14.494Z,5.85
2023-05-14T23:42:41.474Z,5.75
2023-05-14T23:45:08.805Z,6.00
2023-05-14T23:47:35.805Z,5.55
2023-05-14T23:50:03.156Z,5.90
2023-05-14T23:52:29.976Z,6.43
2023-05-14T23:54:56.699Z,6.47
2023-05-14T23:57:23.474Z,6.13
2023-05-14T23:59:50.217Z,6.00
